Time;durP1;ratioP1;P1;durP2;ratioP2;P2;SDS_P1;SDS_P2;PMS_P1;PMS_P2;Temp;Humidity;BMP_temperature;BMP_pressure;BME280_temperature;BME280_humidity;BME280_pressure;Samples;Min_cycle;Max_cycle;Signal;HPM_P1;HPM_P2
2021/05/14 00:00:06;;;;;;;11.40;8.07;;;9.90;99.90;;;;;;5086141;28;20464;-69
2021/05/14 00:02:33;;;;;;;10.57;7.10;;;9.80;99.90;;;;;;5096902;28;20571;-69
2021/05/14 00:05:01;;;;;;;8.40;6.10;;;9.80;99.90;;;;;;5096234;28;20460;-69
2021/05/14 00:07:28;;;;;;;11.70;6.20;;;9.90;99.90;;;;;;5091673;28;20565;-69
2021/05/14 00:09:55;;;;;;;12.13;6.43;;;9.80;99.90;;;;;;5084142;28;20591;-69
2021/05/14 00:12:23;;;;;;;7.20;5.50;;;9.80;99.90;;;;;;5091914;28;20455;-69
2021/05/14 00:14:51;;;;;;;10.17;6.07;;;9.70;99.90;;;;;;5096387;28;20589;-69
2021/05/14 00:17:19;;;;;;;8.60;6.50;;;9.70;99.90;;;;;;5095489;28;20455;-69
2021/05/14 00:19:47;;;;;;;9.23;6.30;;;9.70;99.90;;;;;;5090310;28;20452;-70
2021/05/14 00:22:14;;;;;;;8.63;6.10;;;9.70;99.90;;;;;;5095459;28;20522;-70
2021/05/14 00:24:41;;;;;;;8.73;6.00;;;9.70;99.90;;;;;;5096021;28;20452;-70
2021/05/14 00:27:08;;;;;;;8.53;5.33;;;9.70;99.90;;;;;;5088215;28;20483;-70
2021/05/14 00:29:36;;;;;;;11.37;5.30;;;9.70;99.90;;;;;;5095683;28;20937;-70
2021/05/14 00:32:19;;;;;;;7.67;4.97;;;9.60;99.90;;;;;;5095768;28;20801;-70
2021/05/14 00:34:56;;;;;;;7.43;5.30;;;9.60;99.90;;;;;;5095252;28;20436;-71
2021/05/14 00:37:25;;;;;;;9.03;4.87;;;9.60;99.90;;;;;;5095669;28;20852;-68
2021/05/14 00:39:57;;;;;;;8.20;5.90;;;9.70;99.90;;;;;;5092082;28;20900;-69
2021/05/14 00:42:26;;;;;;;6.37;4.80;;;9.70;99.90;;;;;;5079611;28;20805;-71
2021/05/14 00:45:00;;;;;;;6.67;4.80;;;9.70;99.90;;;;;;5094551;28;20445;-70
2021/05/14 00:48:02;;;;;;;9.30;5.70;;;9.70;99.90;;;;;;5083385;28;20951;-69
2021/05/14 00:50:42;;;;;;;6.87;4.97;;;9.70;99.90;;;;;;5074388;28;20468;-69
2021/05/14 00:53:20;;;;;;;10.60;6.73;;;9.70;99.90;;;;;;5088840;28;20861;-70
2021/05/14 00:55:47;;;;;;;7.77;5.00;;;9.70;99.90;;;;;;5095690;28;20455;-69
2021/05/14 00:58:28;;;;;;;9.57;5.53;;;9.70;99.90;;;;;;5096230;28;20606;-70
2021/05/14 01:01:12;;;;;;;10.00;4.90;;;9.70;99.90;;;;;;5095929;28;20452;-70
2021/05/14 01:03:55;;;;;;;7.63;5.30;;;9.70;99.90;;;;;;5092975;28;20440;-70
2021/05/14 01:06:26;;;;;;;10.13;6.37;;;9.70;99.90;;;;;;5075183;28;20456;-70
2021/05/14 01:09:03;;;;;;;10.30;5.10;;;9.60;99.90;;;;;;5075394;28;20440;-70
2021/05/14 01:11:47;;;;;;;7.10;4.90;;;9.70;99.90;;;;;;5077330;28;20864;-70
2021/05/14 01:14:17;;;;;;;6.90;5.00;;;9.70;99.90;;;;;;5079163;28;20451;-70
2021/05/14 01:16:58;;;;;;;9.07;4.47;;;9.60;99.90;;;;;;5078143;28;20839;-70
2021/05/14 01:19:41;;;;;;;12.03;7.00;;;9.70;99.90;;;;;;5078179;28;20452;-70
2021/05/14 01:22:11;;;;;;;9.77;5.50;;;9.70;99.90;;;;;;5062008;28;20559;-70
2021/05/14 01:24:40;;;;;;;8.07;6.60;;;9.70;99.90;;;;;;5098164;28;20688;-70
2021/05/14 01:27:10;;;;;;;8.73;6.20;;;9.70;99.90;;;;;;5098848;28;20523;-70
2021/05/14 01:29:54;;;;;;;10.00;6.30;;;9.70;99.90;;;;;;5098809;28;20452;-70
2021/05/14 01:32:24;;;;;;;10.10;6.63;;;9.60;99.90;;;;;;5098775;28;20518;-70
2021/05/14 01:34:52;;;;;;;8.37;6.40;;;9.70;99.90;;;;;;5098932;28;20763;-70
2021/05/14 01:37:21;;;;;;;10.60;6.43;;;9.70;99.90;;;;;;5098283;28;20448;-70
2021/05/14 01:39:49;;;;;;;11.63;7.10;;;9.70;99.90;;;;;;5098526;28;20456;-70
2021/05/14 01:42:18;;;;;;;12.67;7.50;;;9.70;99.90;;;;;;5098762;28;20756;-70
2021/05/14 01:44:48;;;;;;;12.60;8.70;;;9.70;99.90;;;;;;5098911;28;20881;-70
2021/05/14 01:47:22;;;;;;;14.63;8.23;;;9.60;99.90;;;;;;5099248;28;20539;-70
2021/05/14 01:49:49;;;;;;;9.63;7.50;;;9.60;99.90;;;;;;5100489;28;20722;-71
2021/05/14 01:52:16;;;;;;;12.17;6.73;;;9.60;99.90;;;;;;5098818;28;20701;-70
2021/05/14 01:54:45;;;;;;;11.97;7.50;;;9.60;99.90;;;;;;5098816;28;20721;-69
2021/05/14 01:57:14;;;;;;;10.67;7.87;;;9.50;99.90;;;;;;5098453;28;20513;-70
2021/05/14 01:59:43;;;;;;;10.87;7.47;;;9.60;99.90;;;;;;5099003;28;20455;-70
2021/05/14 02:02:11;;;;;;;11.67;7.37;;;9.60;99.90;;;;;;5098663;28;20524;-70
2021/05/14 02:04:39;;;;;;;9.77;7.63;;;9.50;99.90;;;;;;5098869;28;20733;-70
2021/05/14 02:07:06;;;;;;;16.63;9.63;;;9.50;99.90;;;;;;5098667;28;20478;-70
2021/05/14 02:09:36;;;;;;;16.40;8.90;;;9.50;99.90;;;;;;5097929;28;20804;-71
2021/05/14 02:12:07;;;;;;;11.40;7.90;;;9.50;99.90;;;;;;5098387;28;20807;-70
2021/05/14 02:14:35;;;;;;;17.47;7.77;;;9.50;99.90;;;;;;5097625;28;20509;-70
2021/05/14 02:17:02;;;;;;;12.63;8.63;;;9.40;99.90;;;;;;5098464;28;20539;-70
2021/05/14 02:19:31;;;;;;;14.33;8.80;;;9.50;99.90;;;;;;5097767;28;20475;-70
2021/05/14 02:22:04;;;;;;;13.43;8.23;;;9.40;99.90;;;;;;5096449;28;20647;-69
2021/05/14 02:24:37;;;;;;;14.27;7.90;;;9.50;99.90;;;;;;5097389;28;20444;-69
2021/05/14 02:27:06;;;;;;;11.33;8.57;;;9.50;99.90;;;;;;5098151;28;20455;-69
2021/05/14 02:29:34;;;;;;;11.43;7.50;;;9.50;99.90;;;;;;5098053;28;20485;-69
2021/05/14 02:32:05;;;;;;;12.60;7.07;;;9.50;99.90;;;;;;5087885;28;20876;-70
2021/05/14 02:34:33;;;;;;;11.47;8.30;;;9.40;99.90;;;;;;5089331;28;20720;-70
2021/05/14 02:37:03;;;;;;;15.20;7.57;;;9.40;99.90;;;;;;5097878;28;20529;-71
2021/05/14 02:39:35;;;;;;;13.70;7.73;;;9.40;99.90;;;;;;5097159;28;20463;-70
2021/05/14 02:42:08;;;;;;;11.50;7.17;;;9.30;99.90;;;;;;5075620;28;20476;-70
2021/05/14 02:44:38;;;;;;;11.33;6.97;;;9.30;99.90;;;;;;5082385;28;20448;-70
2021/05/14 02:47:09;;;;;;;10.80;7.10;;;9.30;99.90;;;;;;5097299;28;20452;-70
2021/05/14 02:49:37;;;;;;;11.30;7.23;;;9.30;99.90;;;;;;5097534;28;20444;-70
2021/05/14 02:52:06;;;;;;;10.10;7.63;;;9.30;99.90;;;;;;5087526;28;20448;-70
2021/05/14 02:54:35;;;;;;;14.10;10.00;;;9.30;99.90;;;;;;5090129;28;20476;-70
2021/05/14 02:57:03;;;;;;;12.77;7.73;;;9.30;99.90;;;;;;5097970;28;20779;-70
2021/05/14 02:59:32;;;;;;;11.43;7.80;;;9.30;99.90;;;;;;5097539;28;20459;-70
2021/05/14 03:02:11;;;;;;;13.23;8.23;;;9.30;99.90;;;;;;5097908;28;20498;-70
2021/05/14 03:04:38;;;;;;;13.97;9.47;;;9.30;99.90;;;;;;5097051;28;20452;-70
2021/05/14 03:07:13;;;;;;;10.93;8.27;;;9.30;99.90;;;;;;5097558;28;20750;-70
2021/05/14 03:09:50;;;;;;;13.70;7.80;;;9.30;99.90;;;;;;5097349;28;20525;-70
2021/05/14 03:12:18;;;;;;;13.03;7.90;;;9.20;99.90;;;;;;5096728;28;20771;-71
2021/05/14 03:14:59;;;;;;;15.37;8.80;;;9.20;99.90;;;;;;5096855;28;20448;-70
2021/05/14 03:17:26;;;;;;;10.53;7.27;;;9.20;99.90;;;;;;5096585;28;21156;-70
2021/05/14 03:20:01;;;;;;;13.40;9.20;;;9.20;99.90;;;;;;5097454;28;20451;-71
2021/05/14 03:22:28;;;;;;;12.57;9.07;;;9.20;99.90;;;;;;5096577;28;20545;-71
2021/05/14 03:24:55;;;;;;;16.33;9.50;;;9.20;99.90;;;;;;5096910;28;20542;-71
2021/05/14 03:27:36;;;;;;;20.43;8.87;;;9.20;99.90;;;;;;5096638;28;20464;-71
2021/05/14 03:30:10;;;;;;;11.70;8.40;;;9.20;99.90;;;;;;5096694;28;20456;-70
2021/05/14 03:32:37;;;;;;;15.80;9.77;;;9.10;99.90;;;;;;5097365;28;20456;-70
2021/05/14 03:35:09;;;;;;;12.57;8.23;;;9.10;99.90;;;;;;5095820;28;20452;-71
2021/05/14 03:37:37;;;;;;;12.20;8.40;;;9.20;99.90;;;;;;5096618;28;20521;-71
2021/05/14 03:40:33;;;;;;;14.90;8.83;;;9.10;99.90;;;;;;5096691;28;20471;-71
2021/05/14 03:43:05;;;;;;;12.73;8.70;;;9.10;99.90;;;;;;5096326;28;20495;-71
2021/05/14 03:45:34;;;;;;;19.63;9.30;;;9.10;99.90;;;;;;5096707;28;20526;-71
2021/05/14 03:48:17;;;;;;;15.43;10.07;;;9.10;99.90;;;;;;5096616;28;20448;-71
2021/05/14 03:50:45;;;;;;;21.00;11.00;;;9.10;99.90;;;;;;5097182;28;20557;-70
2021/05/14 03:53:13;;;;;;;14.13;8.53;;;9.10;99.90;;;;;;5096799;28;20454;-70
2021/05/14 03:55:46;;;;;;;16.90;8.73;;;9.10;99.90;;;;;;5089987;28;20765;-71
2021/05/14 03:58:15;;;;;;;14.30;8.83;;;9.10;99.90;;;;;;5096203;28;20454;-70
2021/05/14 04:01:07;;;;;;;18.73;9.70;;;9.10;99.90;;;;;;5096476;28;20459;-70
2021/05/14 04:03:35;;;;;;;12.30;8.90;;;9.10;99.90;;;;;;5096646;28;20480;-70
2021/05/14 04:06:03;;;;;;;11.90;8.53;;;9.10;99.90;;;;;;5096274;28;20460;-70
2021/05/14 04:08:31;;;;;;;16.83;8.63;;;9.10;99.90;;;;;;5096042;28;20513;-70
2021/05/14 04:11:24;;;;;;;13.57;9.50;;;9.10;99.90;;;;;;5093357;28;20529;-70
2021/05/14 04:16:44;;;;;;;19.23;10.57;;;9.00;99.90;;;;;;5096093;28;20539;-70
2021/05/14 04:19:11;;;;;;;12.80;8.90;;;9.00;99.90;;;;;;5096483;28;20543;-70
2021/05/14 04:21:38;;;;;;;16.90;9.20;;;9.00;99.90;;;;;;5094797;28;20456;-70
2021/05/14 04:24:08;;;;;;;14.57;9.60;;;9.10;99.90;;;;;;5079129;28;20449;-70
2021/05/14 04:26:35;;;;;;;14.63;9.43;;;9.10;99.90;;;;;;5075984;28;20951;-71
2021/05/14 04:29:03;;;;;;;16.10;9.87;;;9.10;99.90;;;;;;5087411;28;20526;-72
2021/05/14 04:31:30;;;;;;;17.03;10.17;;;9.00;99.90;;;;;;5096436;28;20456;-70
2021/05/14 04:34:02;;;;;;;19.97;9.10;;;9.00;99.90;;;;;;5095560;28;20503;-70
2021/05/14 04:36:30;;;;;;;15.63;9.27;;;9.00;99.90;;;;;;5095926;28;20470;-71
2021/05/14 04:38:59;;;;;;;23.33;12.10;;;9.10;99.90;;;;;;5096028;28;20868;-71
2021/05/14 04:41:29;;;;;;;21.37;9.70;;;9.10;99.90;;;;;;5095560;28;20495;-70
2021/05/14 04:43:58;;;;;;;15.50;10.03;;;9.00;99.90;;;;;;5095773;28;20469;-70
2021/05/14 04:46:31;;;;;;;15.20;8.40;;;9.00;99.90;;;;;;5099274;28;20463;-71
2021/05/14 04:49:02;;;;;;;20.00;10.30;;;8.90;99.90;;;;;;5099614;28;20439;-70
2021/05/14 04:51:29;;;;;;;20.53;10.17;;;9.10;99.90;;;;;;5100170;28;20448;-71
2021/05/14 04:53:58;;;;;;;16.43;9.67;;;9.10;99.90;;;;;;5099640;28;20540;-70
2021/05/14 04:56:26;;;;;;;15.53;9.87;;;9.10;99.90;;;;;;5100108;28;20455;-70
2021/05/14 04:58:53;;;;;;;15.70;9.03;;;9.10;99.90;;;;;;5099467;28;20455;-71
2021/05/14 05:01:21;;;;;;;19.33;9.53;;;9.20;99.90;;;;;;5099305;28;20732;-70
2021/05/14 05:03:55;;;;;;;23.07;10.63;;;9.20;99.90;;;;;;5098867;28;20660;-70
2021/05/14 05:06:24;;;;;;;15.90;10.03;;;9.00;99.90;;;;;;5099976;28;20455;-70
2021/05/14 05:08:52;;;;;;;14.87;9.10;;;9.10;99.90;;;;;;5098724;28;20440;-70
2021/05/14 05:11:19;;;;;;;12.80;8.80;;;9.10;99.90;;;;;;5099975;28;20474;-70
2021/05/14 05:13:46;;;;;;;15.13;8.63;;;9.00;99.90;;;;;;5098341;28;20448;-70
2021/05/14 05:16:14;;;;;;;13.33;7.93;;;9.00;99.90;;;;;;5108902;28;20461;-70
2021/05/14 05:18:41;;;;;;;13.10;8.50;;;9.00;99.90;;;;;;5098490;28;20471;-69
2021/05/14 05:21:11;;;;;;;11.77;8.07;;;9.00;99.90;;;;;;5098396;28;20452;-70
2021/05/14 05:23:39;;;;;;;13.53;8.93;;;9.00;99.90;;;;;;5099009;28;20483;-70
2021/05/14 05:26:06;;;;;;;14.57;8.27;;;8.90;99.90;;;;;;5098644;28;20502;-70
2021/05/14 05:28:33;;;;;;;12.33;8.13;;;9.00;99.90;;;;;;5099075;28;20448;-70
2021/05/14 05:31:01;;;;;;;11.10;7.60;;;9.00;99.90;;;;;;5099503;28;20499;-70
2021/05/14 05:33:28;;;;;;;11.80;7.90;;;9.00;99.90;;;;;;5093358;28;20454;-70
2021/05/14 05:35:56;;;;;;;14.67;9.17;;;8.90;99.90;;;;;;5098807;28;20512;-70
2021/05/14 05:38:24;;;;;;;13.03;8.33;;;9.00;99.90;;;;;;5097950;28;20452;-70
2021/05/14 05:40:52;;;;;;;13.57;8.20;;;8.90;99.90;;;;;;5087257;28;20476;-70
2021/05/14 05:43:23;;;;;;;11.17;8.43;;;8.90;99.90;;;;;;5078605;28;20531;-70
2021/05/14 05:45:50;;;;;;;19.10;7.57;;;8.90;99.90;;;;;;5078187;28;20484;-69
2021/05/14 05:48:19;;;;;;;16.83;8.90;;;8.80;99.90;;;;;;5078088;28;20543;-70
2021/05/14 05:50:46;;;;;;;15.20;9.47;;;8.80;99.90;;;;;;5077877;28;20888;-69
2021/05/14 05:53:17;;;;;;;14.53;9.90;;;8.80;99.90;;;;;;5077898;28;20523;-70
2021/05/14 05:55:48;;;;;;;16.80;8.80;;;8.70;99.90;;;;;;5077635;28;20476;-70
2021/05/14 05:58:17;;;;;;;14.80;9.40;;;8.70;99.90;;;;;;5076367;28;20528;-70
2021/05/14 06:00:47;;;;;;;14.90;8.90;;;8.70;99.90;;;;;;5077176;28;20511;-70
2021/05/14 06:03:16;;;;;;;14.83;8.37;;;8.70;99.90;;;;;;5076956;28;20485;-70
2021/05/14 06:05:43;;;;;;;16.40;9.03;;;8.50;99.90;;;;;;5078138;28;20445;-70
2021/05/14 06:08:10;;;;;;;14.47;9.07;;;8.50;99.90;;;;;;5077733;28;20483;-73
2021/05/14 06:10:37;;;;;;;14.63;9.10;;;8.50;99.90;;;;;;5076614;28;20497;-71
2021/05/14 06:13:05;;;;;;;20.73;9.93;;;8.50;99.90;;;;;;5077008;28;20737;-70
2021/05/14 06:15:33;;;;;;;21.37;9.27;;;8.50;99.90;;;;;;5077325;28;20465;-70
2021/05/14 06:18:00;;;;;;;17.63;10.07;;;8.40;99.90;;;;;;5068695;28;20453;-70
2021/05/14 06:20:30;;;;;;;15.77;9.60;;;8.50;99.90;;;;;;5077082;28;20461;-70
2021/05/14 06:22:58;;;;;;;17.40;9.97;;;8.50;99.90;;;;;;5077385;28;20485;-70
2021/05/14 06:25:25;;;;;;;18.00;10.00;;;8.40;99.90;;;;;;5077173;28;20860;-70
2021/05/14 06:27:52;;;;;;;17.07;10.20;;;8.40;99.90;;;;;;5076684;28;21040;-70
2021/05/14 06:30:21;;;;;;;17.80;11.43;;;8.50;99.90;;;;;;5076415;28;20452;-71
2021/05/14 06:32:51;;;;;;;14.90;9.60;;;8.40;99.90;;;;;;5076977;28;20476;-71
2021/05/14 06:35:19;;;;;;;16.90;10.20;;;8.50;99.90;;;;;;5075823;28;20603;-70
2021/05/14 06:37:46;;;;;;;15.97;9.20;;;8.40;99.90;;;;;;5075993;28;20489;-70
2021/05/14 06:40:15;;;;;;;13.40;10.07;;;8.40;99.90;;;;;;5082622;28;20734;-71
2021/05/14 06:42:43;;;;;;;14.10;9.50;;;8.50;99.90;;;;;;5096306;28;20813;-71
2021/05/14 06:45:13;;;;;;;14.77;9.03;;;8.50;99.90;;;;;;5096722;28;20940;-71
2021/05/14 06:47:41;;;;;;;12.47;8.97;;;8.60;99.90;;;;;;5095812;28;20529;-72
2021/05/14 06:50:10;;;;;;;13.20;9.00;;;8.60;99.90;;;;;;5096015;28;20429;-71
2021/05/14 06:52:38;;;;;;;16.50;10.50;;;8.60;99.90;;;;;;5097199;28;20453;-71
2021/05/14 06:55:08;;;;;;;15.07;9.57;;;8.60;99.90;;;;;;5096826;28;20872;-70
2021/05/14 06:57:35;;;;;;;15.20;10.17;;;8.60;99.90;;;;;;5095419;28;20545;-71
2021/05/14 07:00:03;;;;;;;14.73;8.27;;;8.60;99.90;;;;;;5088186;28;20460;-71
2021/05/14 07:02:34;;;;;;;12.77;9.03;;;8.50;99.90;;;;;;5081361;28;20546;-71
2021/05/14 07:05:02;;;;;;;17.67;8.90;;;8.50;99.90;;;;;;5075886;28;20445;-71
2021/05/14 07:07:31;;;;;;;16.30;8.77;;;8.50;99.90;;;;;;5076446;28;20448;-71
2021/05/14 07:09:59;;;;;;;17.70;9.00;;;8.50;99.90;;;;;;5075685;28;20458;-71
2021/05/14 07:12:29;;;;;;;11.40;9.27;;;8.50;99.90;;;;;;5075532;28;20884;-71
2021/05/14 07:14:59;;;;;;;18.53;8.20;;;8.60;99.90;;;;;;5074952;28;20808;-71
2021/05/14 07:17:27;;;;;;;19.37;10.40;;;8.40;99.90;;;;;;5075495;28;20452;-71
2021/05/14 07:19:55;;;;;;;16.87;9.80;;;8.50;99.90;;;;;;5075000;28;20519;-71
2021/05/14 07:22:23;;;;;;;15.20;9.37;;;8.50;99.90;;;;;;5074638;28;20575;-71
2021/05/14 07:24:51;;;;;;;18.70;9.10;;;8.50;99.90;;;;;;5076100;28;20519;-71
2021/05/14 07:27:23;;;;;;;22.70;9.90;;;8.50;99.90;;;;;;5075064;28;20492;-70
2021/05/14 07:29:51;;;;;;;15.03;7.90;;;8.50;99.90;;;;;;5075909;28;20807;-71
2021/05/14 07:32:18;;;;;;;18.47;8.73;;;8.50;99.90;;;;;;5095814;28;20444;-70
2021/05/14 07:34:46;;;;;;;17.93;9.23;;;8.40;99.90;;;;;;5095621;28;20550;-71
2021/05/14 07:37:14;;;;;;;18.63;8.50;;;8.40;99.90;;;;;;5088753;28;20468;-71
2021/05/14 07:39:44;;;;;;;14.60;7.80;;;8.40;99.90;;;;;;5076157;28;20484;-72
2021/05/14 07:42:13;;;;;;;14.27;8.23;;;8.50;99.90;;;;;;5074288;28;20488;-71
2021/05/14 07:44:44;;;;;;;13.13;7.67;;;8.50;99.90;;;;;;5073652;28;20461;-71
2021/05/14 07:47:11;;;;;;;15.63;7.63;;;8.40;99.90;;;;;;5076898;28;20479;-71
2021/05/14 07:49:38;;;;;;;13.60;8.17;;;8.40;99.90;;;;;;5094941;28;20884;-71
2021/05/14 07:52:08;;;;;;;13.43;8.10;;;8.30;99.90;;;;;;5095507;28;20498;-71
2021/05/14 07:54:36;;;;;;;20.37;7.60;;;8.30;99.90;;;;;;5095888;28;20466;-71
2021/05/14 07:57:03;;;;;;;15.53;7.30;;;8.40;99.90;;;;;;5095659;28;20522;-71
2021/05/14 07:59:32;;;;;;;18.50;7.70;;;8.40;99.90;;;;;;5096011;28;20467;-71
2021/05/14 08:02:01;;;;;;;15.53;9.40;;;8.40;99.90;;;;;;5094827;28;20448;-71
2021/05/14 08:04:28;;;;;;;13.03;8.87;;;8.40;99.90;;;;;;5095403;28;20858;-71
2021/05/14 08:06:56;;;;;;;14.60;8.17;;;8.40;99.90;;;;;;5095476;28;20463;-71
2021/05/14 08:09:24;;;;;;;14.97;8.30;;;8.40;99.90;;;;;;5095890;28;20471;-71
2021/05/14 08:11:51;;;;;;;10.23;6.57;;;8.40;99.90;;;;;;5095325;28;21039;-70
2021/05/14 08:14:19;;;;;;;10.50;7.50;;;8.40;99.90;;;;;;5096312;28;20452;-70
2021/05/14 08:17:36;;;;;;;11.20;7.70;;;8.40;99.90;;;;;;5093917;28;20444;-70
2021/05/14 08:20:07;;;;;;;12.40;7.57;;;8.40;99.90;;;;;;5096023;28;20515;-70
2021/05/14 08:22:34;;;;;;;12.53;7.60;;;8.40;99.90;;;;;;5099073;28;20494;-70
2021/05/14 08:25:02;;;;;;;13.27;7.17;;;8.40;99.90;;;;;;5100596;28;20788;-71
2021/05/14 08:27:29;;;;;;;13.80;9.57;;;8.40;99.90;;;;;;5099329;28;20929;-71
2021/05/14 08:29:56;;;;;;;14.30;10.63;;;8.40;99.90;;;;;;5099253;28;20791;-70
2021/05/14 08:32:23;;;;;;;26.43;14.27;;;8.30;99.90;;;;;;5099181;28;20444;-70
2021/05/14 08:35:00;;;;;;;13.63;9.07;;;8.40;99.90;;;;;;5099160;28;20459;-70
2021/05/14 08:37:30;;;;;;;14.73;9.17;;;8.40;99.90;;;;;;5099215;28;20817;-72
2021/05/14 08:39:57;;;;;;;17.43;9.60;;;8.40;99.90;;;;;;5100700;28;20510;-72
2021/05/14 08:42:25;;;;;;;15.20;8.40;;;8.30;99.90;;;;;;5098899;28;21216;-71
2021/05/14 08:44:55;;;;;;;14.70;7.73;;;8.20;99.90;;;;;;5098839;28;20490;-71
2021/05/14 08:47:22;;;;;;;26.43;8.83;;;8.20;99.90;;;;;;5098742;28;20838;-71
2021/05/14 08:49:51;;;;;;;17.40;10.50;;;8.40;99.90;;;;;;5098566;28;20571;-71
2021/05/14 08:52:22;;;;;;;15.93;8.97;;;8.30;99.90;;;;;;5098783;28;20794;-73
2021/05/14 08:54:57;;;;;;;18.50;9.43;;;8.40;99.90;;;;;;5098557;28;20755;-72
2021/05/14 08:57:32;;;;;;;17.40;8.17;;;8.30;99.90;;;;;;5098408;28;20907;-70
2021/05/14 09:00:01;;;;;;;16.20;8.70;;;8.30;99.90;;;;;;5097638;28;20463;-72
2021/05/14 09:02:28;;;;;;;13.80;8.07;;;8.40;99.90;;;;;;5098142;28;20479;-71
2021/05/14 09:04:56;;;;;;;8.80;6.83;;;8.40;99.90;;;;;;5098299;28;20456;-72
2021/05/14 09:07:30;;;;;;;10.87;7.10;;;8.30;99.90;;;;;;5100995;28;20455;-72
2021/05/14 09:10:10;;;;;;;9.93;8.00;;;8.40;99.90;;;;;;5098819;28;20498;-71
2021/05/14 09:12:39;;;;;;;10.60;6.63;;;8.30;99.90;;;;;;5101458;28;21131;-71
2021/05/14 09:15:27;;;;;;;13.20;7.53;;;8.30;99.90;;;;;;5102424;28;20459;-71
2021/05/14 09:18:09;;;;;;;14.03;9.40;;;8.30;99.90;;;;;;5098788;28;20440;-71
2021/05/14 09:20:38;;;;;;;11.50;7.67;;;8.30;99.90;;;;;;5097768;28;20521;-71
2021/05/14 09:23:27;;;;;;;13.20;7.70;;;8.40;99.90;;;;;;5098033;28;20486;-71
2021/05/14 09:26:10;;;;;;;10.47;7.13;;;8.40;99.90;;;;;;5078632;28;20441;-70
2021/05/14 09:28:39;;;;;;;13.80;7.10;;;8.40;99.90;;;;;;5077244;28;20456;-70
2021/05/14 09:31:21;;;;;;;11.53;7.00;;;8.30;99.90;;;;;;5091839;28;20483;-70
2021/05/14 09:34:02;;;;;;;11.90;7.93;;;8.40;99.90;;;;;;5076962;28;20511;-70
2021/05/14 09:36:36;;;;;;;11.97;8.40;;;8.50;99.90;;;;;;5076904;28;20728;-70
2021/05/14 09:39:09;;;;;;;12.30;8.47;;;8.50;99.90;;;;;;5077141;28;20883;-70
2021/05/14 09:41:40;;;;;;;12.50;8.70;;;8.60;99.90;;;;;;5084504;28;20868;-70
2021/05/14 09:44:18;;;;;;;12.03;7.80;;;8.70;99.90;;;;;;5097451;28;20769;-71
2021/05/14 09:46:46;;;;;;;11.20;7.93;;;8.50;99.90;;;;;;5097697;28;20531;-71
2021/05/14 09:49:17;;;;;;;13.53;8.33;;;8.60;99.90;;;;;;5097681;28;20448;-72
2021/05/14 09:51:53;;;;;;;11.17;8.70;;;8.50;99.90;;;;;;5097050;28;20927;-71
2021/05/14 09:54:26;;;;;;;14.00;7.83;;;8.60;99.90;;;;;;5097617;28;20571;-72
2021/05/14 09:57:20;;;;;;;9.80;6.47;;;8.50;99.90;;;;;;5098439;28;20499;-71
2021/05/14 10:00:00;;;;;;;15.23;7.67;;;8.40;99.90;;;;;;5096947;28;20448;-71
2021/05/14 10:02:31;;;;;;;10.17;6.93;;;8.40;99.90;;;;;;5094697;28;20527;-70
2021/05/14 10:05:01;;;;;;;11.07;7.13;;;8.50;99.90;;;;;;5095584;28;20736;-71
2021/05/14 10:07:42;;;;;;;12.00;8.80;;;8.40;99.90;;;;;;5095473;28;20514;-72
2021/05/14 10:10:11;;;;;;;10.63;7.60;;;8.60;99.90;;;;;;5096695;28;20742;-71
2021/05/14 10:12:41;;;;;;;10.20;6.57;;;8.40;99.90;;;;;;5096401;28;20915;-71
2021/05/14 10:15:09;;;;;;;10.57;7.83;;;8.40;99.90;;;;;;5095479;28;20456;-71
2021/05/14 10:17:39;;;;;;;9.87;7.20;;;8.50;99.90;;;;;;5095247;28;20447;-71
2021/05/14 10:20:12;;;;;;;8.67;6.83;;;8.30;99.90;;;;;;5095641;28;20499;-71
2021/05/14 10:22:40;;;;;;;12.30;7.83;;;8.30;99.90;;;;;;5095432;28;20488;-71
2021/05/14 10:25:09;;;;;;;12.87;7.33;;;8.30;99.90;;;;;;5095587;28;20915;-71
2021/05/14 10:27:42;;;;;;;10.97;6.93;;;8.40;99.90;;;;;;5095701;28;20455;-71
2021/05/14 10:30:10;;;;;;;13.33;8.30;;;8.30;99.90;;;;;;5096393;28;20539;-71
2021/05/14 10:32:54;;;;;;;11.17;7.70;;;8.40;99.90;;;;;;5096426;28;20453;-71
2021/05/14 10:35:29;;;;;;;14.13;7.83;;;8.40;99.90;;;;;;5095965;28;20456;-71
2021/05/14 10:38:02;;;;;;;7.27;4.77;;;8.40;99.90;;;;;;5096082;28;20543;-71
2021/05/14 10:40:44;;;;;;;11.53;7.80;;;8.30;99.90;;;;;;5095748;28;20559;-71
2021/05/14 10:43:13;;;;;;;13.90;8.77;;;8.30;99.90;;;;;;5096101;28;20546;-71
2021/05/14 10:45:42;;;;;;;12.80;8.33;;;8.40;99.90;;;;;;5095066;28;20884;-71
2021/05/14 10:50:58;;;;;;;14.50;9.73;;;8.40;99.90;;;;;;5095968;28;20455;-71
2021/05/14 10:53:35;;;;;;;14.33;8.80;;;8.50;99.90;;;;;;5095229;28;20452;-71
2021/05/14 10:56:57;;;;;;;11.73;8.63;;;8.60;99.90;;;;;;5074614;28;20696;-70
2021/05/14 10:59:38;;;;;;;19.40;9.10;;;8.50;99.90;;;;;;5008455;28;20475;-70
2021/05/14 11:02:28;;;;;;;9.17;5.73;;;8.60;99.90;;;;;;5013057;28;20467;-70
2021/05/14 11:04:58;;;;;;;12.57;8.03;;;8.40;99.90;;;;;;5084400;28;20444;-71
2021/05/14 11:07:36;;;;;;;15.10;7.73;;;8.50;99.90;;;;;;5095468;28;20468;-70
2021/05/14 11:10:37;;;;;;;9.83;7.40;;;8.60;99.90;;;;;;5089525;28;20449;-71
2021/05/14 11:13:40;;;;;;;8.97;7.10;;;8.40;99.90;;;;;;5031149;28;20559;-71
2021/05/14 11:16:34;;;;;;;17.63;7.30;;;8.40;99.90;;;;;;5084616;28;20860;-71
2021/05/14 11:19:15;;;;;;;14.80;9.53;;;8.30;99.90;;;;;;5095834;28;20781;-70
2021/05/14 11:22:12;;;;;;;13.07;7.87;;;8.50;99.90;;;;;;5094805;28;20451;-70
2021/05/14 11:24:43;;;;;;;12.13;7.70;;;8.50;99.90;;;;;;5083045;28;20440;-70
2021/05/14 11:27:14;;;;;;;12.83;8.00;;;8.40;99.90;;;;;;5094759;28;20734;-70
2021/05/14 11:29:45;;;;;;;17.40;9.40;;;8.40;99.90;;;;;;5095001;28;20535;-71
2021/05/14 11:32:25;;;;;;;22.00;13.53;;;8.50;99.90;;;;;;5095294;28;20499;-71
2021/05/14 11:35:01;;;;;;;19.87;10.80;;;8.50;99.90;;;;;;5094102;28;20456;-71
2021/05/14 11:37:29;;;;;;;16.47;10.33;;;8.60;99.90;;;;;;5094191;28;20460;-71
2021/05/14 11:40:08;;;;;;;13.37;9.27;;;8.70;99.90;;;;;;5095060;28;20460;-72
2021/05/14 11:42:43;;;;;;;17.63;11.23;;;8.70;99.90;;;;;;5093253;28;20483;-72
2021/05/14 11:45:12;;;;;;;15.63;9.30;;;8.70;99.90;;;;;;5094444;28;20474;-71
2021/05/14 11:48:01;;;;;;;15.73;7.97;;;8.80;99.90;;;;;;5095386;28;20597;-71
2021/05/14 11:50:35;;;;;;;12.60;9.40;;;8.60;99.90;;;;;;5090432;28;20452;-71
2021/05/14 11:53:09;;;;;;;20.50;10.93;;;8.80;99.90;;;;;;5095458;28;20452;-71
2021/05/14 11:55:38;;;;;;;14.07;9.60;;;8.60;99.90;;;;;;5093248;28;20764;-71
2021/05/14 11:58:06;;;;;;;12.90;9.60;;;8.60;99.90;;;;;;5094940;28;20467;-71
2021/05/14 12:00:35;;;;;;;14.53;9.17;;;8.70;99.90;;;;;;5095818;28;20444;-72
2021/05/14 12:03:04;;;;;;;12.03;8.47;;;8.60;99.90;;;;;;5094693;28;20488;-71
2021/05/14 12:05:31;;;;;;;10.03;8.30;;;8.60;99.90;;;;;;5095074;28;20765;-72
2021/05/14 12:08:18;;;;;;;8.90;7.73;;;8.60;99.90;;;;;;5094762;28;20956;-71
2021/05/14 12:10:48;;;;;;;18.93;9.50;;;8.70;99.90;;;;;;5094963;28;20854;-71
2021/05/14 12:13:55;;;;;;;13.40;9.77;;;8.70;99.90;;;;;;5094664;28;20467;-71
2021/05/14 12:16:27;;;;;;;12.30;9.43;;;8.80;99.90;;;;;;5094102;28;20448;-71
2021/05/14 12:18:58;;;;;;;14.63;9.60;;;8.60;99.90;;;;;;5094729;28;20478;-71
2021/05/14 12:21:27;;;;;;;18.70;12.53;;;8.70;99.90;;;;;;5094362;28;20934;-71
2021/05/14 12:24:00;;;;;;;15.50;10.37;;;8.70;99.90;;;;;;5094794;28;20506;-71
2021/05/14 12:26:33;;;;;;;16.90;10.30;;;8.80;99.90;;;;;;5094854;28;20448;-71
2021/05/14 12:29:02;;;;;;;19.90;10.27;;;8.80;99.90;;;;;;5094476;28;20894;-71
2021/05/14 12:31:33;;;;;;;14.20;9.47;;;9.00;99.90;;;;;;5096267;28;20449;-71
2021/05/14 12:34:09;;;;;;;19.73;10.53;;;8.70;99.90;;;;;;5094997;28;20875;-71
2021/05/14 12:36:40;;;;;;;17.93;8.77;;;8.70;99.90;;;;;;5094970;28;20479;-71
2021/05/14 12:39:38;;;;;;;14.70;9.50;;;8.90;99.90;;;;;;5093736;28;20464;-71
2021/05/14 12:42:18;;;;;;;18.90;11.40;;;8.80;99.90;;;;;;5081852;28;20444;-71
2021/05/14 12:44:49;;;;;;;16.50;10.03;;;9.00;99.90;;;;;;5094012;28;20871;-72
2021/05/14 12:47:20;;;;;;;13.83;10.00;;;9.00;99.90;;;;;;5086920;28;20490;-72
2021/05/14 12:50:08;;;;;;;11.30;9.57;;;9.10;99.90;;;;;;5092959;28;20860;-71
2021/05/14 12:53:00;;;;;;;13.33;9.10;;;9.10;99.90;;;;;;5100144;28;20468;-71
2021/05/14 12:56:04;;;;;;;14.00;8.53;;;9.10;99.90;;;;;;5091496;28;21192;-71
2021/05/14 12:58:35;;;;;;;12.77;8.63;;;9.10;99.90;;;;;;5084562;28;20729;-71
2021/05/14 13:01:15;;;;;;;12.73;8.43;;;9.10;99.90;;;;;;5092493;28;20452;-71
2021/05/14 13:03:44;;;;;;;13.70;9.23;;;8.90;99.90;;;;;;5085121;28;20481;-71
2021/05/14 13:06:16;;;;;;;10.73;8.77;;;9.10;99.90;;;;;;5075075;28;20750;-71
2021/05/14 13:08:43;;;;;;;12.70;8.87;;;9.10;99.90;;;;;;5077389;28;20460;-71
2021/05/14 13:11:12;;;;;;;13.00;8.90;;;9.10;99.90;;;;;;5076800;28;20460;-71
2021/05/14 13:13:40;;;;;;;15.13;9.10;;;9.10;99.90;;;;;;5076846;28;20457;-70
2021/05/14 13:16:08;;;;;;;17.30;9.10;;;9.10;99.90;;;;;;5082558;28;20553;-70
2021/05/14 13:18:37;;;;;;;13.13;8.83;;;9.10;99.90;;;;;;5096727;28;20518;-70